sensor_id;sensor_type;location;lat;lon;timestamp;P1;durP1;ratioP1;P2;durP2;ratioP2
22610;SDS011;11472;45.494;12.142;2023-04-24T00:00:01;18.60;;;12.80;;
22610;SDS011;11472;45.494;12.142;2023-04-24T00:01:01;18.60;;;12.80;;
22610;SDS011;11472;45.494;12.142;2023-04-24T00:02:01;18.60;;;12.80;;
22610;SDS011;11472;45.494;12.142;2023-04-24T00:03:03;18.60;;;12.80;;
22610;SDS011;11472;45.494;12.142;2023-04-24T00:04:01;16.80;;;12.30;;
22610;SDS011;11472;45.494;12.142;2023-04-24T00:05:03;16.80;;;12.30;;
22610;SDS011;11472;45.494;12.142;2023-04-24T00:06:00;16.80;;;12.30;;
22610;SDS011;11472;45.494;12.142;2023-04-24T00:07:00;16.80;;;12.30;;
22610;SDS011;11472;45.494;12.142;2023-04-24T00:08:00;16.80;;;12.30;;
22610;SDS011;11472;45.494;12.142;2023-04-24T00:09:01;16.80;;;12.30;;
22610;SDS011;11472;45.494;12.142;2023-04-24T00:10:00;16.80;;;12.30;;
22610;SDS011;11472;45.494;12.142;2023-04-24T00:11:00;16.80;;;12.30;;
22610;SDS011;11472;45.494;12.142;2023-04-24T00:12:02;16.80;;;12.30;;
22610;SDS011;11472;45.494;12.142;2023-04-24T00:13:00;16.80;;;12.30;;
22610;SDS011;11472;45.494;12.142;2023-04-24T00:14:00;16.80;;;12.30;;
22610;SDS011;11472;45.494;12.142;2023-04-24T00:15:01;16.80;;;12.30;;
22610;SDS011;11472;45.494;12.142;2023-04-24T00:16:00;16.80;;;12.30;;
22610;SDS011;11472;45.494;12.142;2023-04-24T00:17:02;16.80;;;12.30;;
22610;SDS011;11472;45.494;12.142;2023-04-24T00:18:02;16.80;;;12.30;;
22610;SDS011;11472;45.494;12.142;2023-04-24T00:19:00;16.10;;;12.00;;
22610;SDS011;11472;45.494;12.142;2023-04-24T00:20:03;16.10;;;12.00;;
22610;SDS011;11472;45.494;12.142;2023-04-24T00:21:00;16.10;;;12.00;;
22610;SDS011;11472;45.494;12.142;2023-04-24T00:22:00;16.10;;;12.00;;
22610;SDS011;11472;45.494;12.142;2023-04-24T00:23:00;16.10;;;12.00;;
22610;SDS011;11472;45.494;12.142;2023-04-24T00:24:00;16.10;;;12.00;;
22610;SDS011;11472;45.494;12.142;2023-04-24T00:25:00;16.10;;;12.00;;
22610;SDS011;11472;45.494;12.142;2023-04-24T00:26:00;16.10;;;12.00;;
22610;SDS011;11472;45.494;12.142;2023-04-24T00:27:01;16.10;;;12.00;;
22610;SDS011;11472;45.494;12.142;2023-04-24T00:28:00;16.10;;;12.00;;
22610;SDS011;11472;45.494;12.142;2023-04-24T00:29:00;16.10;;;12.00;;
22610;SDS011;11472;45.494;12.142;2023-04-24T00:30:00;16.10;;;12.00;;
22610;SDS011;11472;45.494;12.142;2023-04-24T00:31:00;16.10;;;12.00;;
22610;SDS011;11472;45.494;12.142;2023-04-24T00:32:00;16.10;;;12.00;;
22610;SDS011;11472;45.494;12.142;2023-04-24T00:33:00;16.10;;;12.00;;
22610;SDS011;11472;45.494;12.142;2023-04-24T00:34:02;22.90;;;12.40;;
22610;SDS011;11472;45.494;12.142;2023-04-24T00:35:00;22.90;;;12.40;;
22610;SDS011;11472;45.494;12.142;2023-04-24T00:36:00;22.90;;;12.40;;
22610;SDS011;11472;45.494;12.142;2023-04-24T00:37:01;22.90;;;12.40;;
22610;SDS011;11472;45.494;12.142;2023-04-24T00:38:00;22.90;;;12.40;;
22610;SDS011;11472;45.494;12.142;2023-04-24T00:39:00;22.90;;;12.40;;
22610;SDS011;11472;45.494;12.142;2023-04-24T00:40:00;22.90;;;12.40;;
22610;SDS011;11472;45.494;12.142;2023-04-24T00:41:00;22.90;;;12.40;;
22610;SDS011;11472;45.494;12.142;2023-04-24T00:42:01;22.90;;;12.40;;
22610;SDS011;11472;45.494;12.142;2023-04-24T00:43:00;22.90;;;12.40;;
22610;SDS011;11472;45.494;12.142;2023-04-24T00:44:00;22.90;;;12.40;;
22610;SDS011;11472;45.494;12.142;2023-04-24T00:45:01;22.90;;;12.40;;
22610;SDS011;11472;45.494;12.142;2023-04-24T00:46:01;22.90;;;12.40;;
22610;SDS011;11472;45.494;12.142;2023-04-24T00:47:01;22.90;;;12.40;;
22610;SDS011;11472;45.494;12.142;2023-04-24T00:48:01;22.90;;;12.40;;
22610;SDS011;11472;45.494;12.142;2023-04-24T00:49:00;18.70;;;13.00;;
22610;SDS011;11472;45.494;12.142;2023-04-24T00:50:04;18.70;;;13.00;;
22610;SDS011;11472;45.494;12.142;2023-04-24T00:51:01;18.70;;;13.00;;
22610;SDS011;11472;45.494;12.142;2023-04-24T00:52:01;18.70;;;13.00;;
22610;SDS011;11472;45.494;12.142;2023-04-24T00:53:00;18.70;;;13.00;;
22610;SDS011;11472;45.494;12.142;2023-04-24T00:54:01;18.70;;;13.00;;
22610;SDS011;11472;45.494;12.142;2023-04-24T00:55:00;18.70;;;13.00;;
22610;SDS011;11472;45.494;12.142;2023-04-24T00:56:01;18.70;;;13.00;;
22610;SDS011;11472;45.494;12.142;2023-04-24T00:57:02;18.70;;;13.00;;
22610;SDS011;11472;45.494;12.142;2023-04-24T00:58:00;18.70;;;13.00;;
22610;SDS011;11472;45.494;12.142;2023-04-24T00:59:00;18.70;;;13.00;;
22610;SDS011;11472;45.494;12.142;2023-04-24T01:00:00;18.70;;;13.00;;
22610;SDS011;11472;45.494;12.142;2023-04-24T01:01:02;18.70;;;13.00;;
22610;SDS011;11472;45.494;12.142;2023-04-24T01:02:00;18.70;;;13.00;;
22610;SDS011;11472;45.494;12.142;2023-04-24T01:03:01;18.70;;;13.00;;
22610;SDS011;11472;45.494;12.142;2023-04-24T01:04:01;20.10;;;13.30;;
22610;SDS011;11472;45.494;12.142;2023-04-24T01:05:01;20.10;;;13.30;;
22610;SDS011;11472;45.494;12.142;2023-04-24T01:06:00;20.10;;;13.30;;
22610;SDS011;11472;45.494;12.142;2023-04-24T01:07:00;20.10;;;13.30;;
22610;SDS011;11472;45.494;12.142;2023-04-24T01:08:00;20.10;;;13.30;;
22610;SDS011;11472;45.494;12.142;2023-04-24T01:09:00;20.10;;;13.30;;
22610;SDS011;11472;45.494;12.142;2023-04-24T01:10:00;20.10;;;13.30;;
22610;SDS011;11472;45.494;12.142;2023-04-24T01:11:00;20.10;;;13.30;;
22610;SDS011;11472;45.494;12.142;2023-04-24T01:12:00;20.10;;;13.30;;
22610;SDS011;11472;45.494;12.142;2023-04-24T01:13:00;20.10;;;13.30;;
22610;SDS011;11472;45.494;12.142;2023-04-24T01:14:00;20.10;;;13.30;;
22610;SDS011;11472;45.494;12.142;2023-04-24T01:15:00;20.10;;;13.30;;
22610;SDS011;11472;45.494;12.142;2023-04-24T01:16:01;20.10;;;13.30;;
22610;SDS011;11472;45.494;12.142;2023-04-24T01:17:01;20.10;;;13.30;;
22610;SDS011;11472;45.494;12.142;2023-04-24T01:18:00;20.10;;;13.30;;
22610;SDS011;11472;45.494;12.142;2023-04-24T01:19:00;20.10;;;13.40;;
22610;SDS011;11472;45.494;12.142;2023-04-24T01:20:01;20.10;;;13.40;;
22610;SDS011;11472;45.494;12.142;2023-04-24T01:21:01;20.10;;;13.40;;
22610;SDS011;11472;45.494;12.142;2023-04-24T01:22:02;20.10;;;13.40;;
22610;SDS011;11472;45.494;12.142;2023-04-24T01:23:01;20.10;;;13.40;;
22610;SDS011;11472;45.494;12.142;2023-04-24T01:24:00;20.10;;;13.40;;
22610;SDS011;11472;45.494;12.142;2023-04-24T01:25:01;20.10;;;13.40;;
22610;SDS011;11472;45.494;12.142;2023-04-24T01:26:01;20.10;;;13.40;;
22610;SDS011;11472;45.494;12.142;2023-04-24T01:27:01;20.10;;;13.40;;
22610;SDS011;11472;45.494;12.142;2023-04-24T01:28:00;20.10;;;13.40;;
22610;SDS011;11472;45.494;12.142;2023-04-24T01:29:00;20.10;;;13.40;;
22610;SDS011;11472;45.494;12.142;2023-04-24T01:30:00;20.10;;;13.40;;
22610;SDS011;11472;45.494;12.142;2023-04-24T01:31:00;20.10;;;13.40;;
22610;SDS011;11472;45.494;12.142;2023-04-24T01:32:00;20.10;;;13.40;;
22610;SDS011;11472;45.494;12.142;2023-04-24T01:33:00;20.10;;;13.40;;
22610;SDS011;11472;45.494;12.142;2023-04-24T01:34:00;18.20;;;14.20;;
22610;SDS011;11472;45.494;12.142;2023-04-24T01:35:01;18.20;;;14.20;;
22610;SDS011;11472;45.494;12.142;2023-04-24T01:36:01;18.20;;;14.20;;
22610;SDS011;11472;45.494;12.142;2023-04-24T01:37:00;18.20;;;14.20;;
22610;SDS011;11472;45.494;12.142;2023-04-24T01:38:00;18.20;;;14.20;;
22610;SDS011;11472;45.494;12.142;2023-04-24T01:39:00;18.20;;;14.20;;
22610;SDS011;11472;45.494;12.142;2023-04-24T01:40:00;18.20;;;14.20;;
22610;SDS011;11472;45.494;12.142;2023-04-24T01:41:00;18.20;;;14.20;;
22610;SDS011;11472;45.494;12.142;2023-04-24T01:42:02;18.20;;;14.20;;
22610;SDS011;11472;45.494;12.142;2023-04-24T01:43:00;18.20;;;14.20;;
22610;SDS011;11472;45.494;12.142;2023-04-24T01:44:00;18.20;;;14.20;;
22610;SDS011;11472;45.494;12.142;2023-04-24T01:45:01;18.20;;;14.20;;
22610;SDS011;11472;45.494;12.142;2023-04-24T01:46:00;18.20;;;14.20;;
22610;SDS011;11472;45.494;12.142;2023-04-24T01:47:01;18.20;;;14.20;;
22610;SDS011;11472;45.494;12.142;2023-04-24T01:48:00;18.20;;;14.20;;
22610;SDS011;11472;45.494;12.142;2023-04-24T01:49:01;22.70;;;14.40;;
22610;SDS011;11472;45.494;12.142;2023-04-24T01:50:00;22.70;;;14.40;;
22610;SDS011;11472;45.494;12.142;2023-04-24T01:51:00;22.70;;;14.40;;
22610;SDS011;11472;45.494;12.142;2023-04-24T01:52:00;22.70;;;14.40;;
22610;SDS011;11472;45.494;12.142;2023-04-24T01:53:00;22.70;;;14.40;;
22610;SDS011;11472;45.494;12.142;2023-04-24T01:54:00;22.70;;;14.40;;
22610;SDS011;11472;45.494;12.142;2023-04-24T01:55:00;22.70;;;14.40;;
22610;SDS011;11472;45.494;12.142;2023-04-24T01:56:01;22.70;;;14.40;;
22610;SDS011;11472;45.494;12.142;2023-04-24T01:57:02;22.70;;;14.40;;
22610;SDS011;11472;45.494;12.142;2023-04-24T01:58:00;22.70;;;14.40;;
22610;SDS011;11472;45.494;12.142;2023-04-24T01:59:00;22.70;;;14.40;;
22610;SDS011;11472;45.494;12.142;2023-04-24T02:00:00;22.70;;;14.40;;
22610;SDS011;11472;45.494;12.142;2023-04-24T02:01:01;22.70;;;14.40;;
22610;SDS011;11472;45.494;12.142;2023-04-24T02:02:00;22.70;;;14.40;;
22610;SDS011;11472;45.494;12.142;2023-04-24T02:03:01;22.70;;;14.40;;
22610;SDS011;11472;45.494;12.142;2023-04-24T02:04:01;21.90;;;15.00;;
22610;SDS011;11472;45.494;12.142;2023-04-24T02:05:00;21.90;;;15.00;;
22610;SDS011;11472;45.494;12.142;2023-04-24T02:06:00;21.90;;;15.00;;
22610;SDS011;11472;45.494;12.142;2023-04-24T02:07:00;21.90;;;15.00;;
22610;SDS011;11472;45.494;12.142;2023-04-24T02:08:00;21.90;;;15.00;;
22610;SDS011;11472;45.494;12.142;2023-04-24T02:09:00;21.90;;;15.00;;
22610;SDS011;11472;45.494;12.142;2023-04-24T02:10:00;21.90;;;15.00;;
22610;SDS011;11472;45.494;12.142;2023-04-24T02:11:02;21.90;;;15.00;;
22610;SDS011;11472;45.494;12.142;2023-04-24T02:12:00;21.90;;;15.00;;
22610;SDS011;11472;45.494;12.142;2023-04-24T02:13:00;21.90;;;15.00;;
22610;SDS011;11472;45.494;12.142;2023-04-24T02:14:00;21.90;;;15.00;;
22610;SDS011;11472;45.494;12.142;2023-04-24T02:15:00;21.90;;;15.00;;
22610;SDS011;11472;45.494;12.142;2023-04-24T02:16:01;21.90;;;15.00;;
22610;SDS011;11472;45.494;12.142;2023-04-24T02:17:00;21.90;;;15.00;;
22610;SDS011;11472;45.494;12.142;2023-04-24T02:18:00;21.90;;;15.00;;
22610;SDS011;11472;45.494;12.142;2023-04-24T02:19:00;26.10;;;16.80;;
22610;SDS011;11472;45.494;12.142;2023-04-24T02:20:01;26.10;;;16.80;;
22610;SDS011;11472;45.494;12.142;2023-04-24T02:21:00;26.10;;;16.80;;
22610;SDS011;11472;45.494;12.142;2023-04-24T02:22:00;26.10;;;16.80;;
22610;SDS011;11472;45.494;12.142;2023-04-24T02:23:01;26.10;;;16.80;;
22610;SDS011;11472;45.494;12.142;2023-04-24T02:24:00;26.10;;;16.80;;
22610;SDS011;11472;45.494;12.142;2023-04-24T02:25:01;26.10;;;16.80;;
22610;SDS011;11472;45.494;12.142;2023-04-24T02:26:00;26.10;;;16.80;;
22610;SDS011;11472;45.494;12.142;2023-04-24T02:27:02;26.10;;;16.80;;
22610;SDS011;11472;45.494;12.142;2023-04-24T02:28:00;26.10;;;16.80;;
22610;SDS011;11472;45.494;12.142;2023-04-24T02:29:00;26.10;;;16.80;;
22610;SDS011;11472;45.494;12.142;2023-04-24T02:30:00;26.10;;;16.80;;
22610;SDS011;11472;45.494;12.142;2023-04-24T02:31:00;26.10;;;16.80;;
22610;SDS011;11472;45.494;12.142;2023-04-24T02:32:00;26.10;;;16.80;;
22610;SDS011;11472;45.494;12.142;2023-04-24T02:33:00;26.10;;;16.80;;
22610;SDS011;11472;45.494;12.142;2023-04-24T02:34:01;25.00;;;15.90;;
22610;SDS011;11472;45.494;12.142;2023-04-24T02:35:01;25.00;;;15.90;;
22610;SDS011;11472;45.494;12.142;2023-04-24T02:36:01;25.00;;;15.90;;
22610;SDS011;11472;45.494;12.142;2023-04-24T02:37:00;25.00;;;15.90;;
22610;SDS011;11472;45.494;12.142;2023-04-24T02:38:00;25.00;;;15.90;;
22610;SDS011;11472;45.494;12.142;2023-04-24T02:39:01;25.00;;;15.90;;
22610;SDS011;11472;45.494;12.142;2023-04-24T02:40:00;25.00;;;15.90;;
22610;SDS011;11472;45.494;12.142;2023-04-24T02:41:02;25.00;;;15.90;;
22610;SDS011;11472;45.494;12.142;2023-04-24T02:42:01;25.00;;;15.90;;
22610;SDS011;11472;45.494;12.142;2023-04-24T02:43:00;25.00;;;15.90;;
22610;SDS011;11472;45.494;12.142;2023-04-24T02:44:00;25.00;;;15.90;;
22610;SDS011;11472;45.494;12.142;2023-04-24T02:45:00;25.00;;;15.90;;
22610;SDS011;11472;45.494;12.142;2023-04-24T02:46:00;25.00;;;15.90;;
22610;SDS011;11472;45.494;12.142;2023-04-24T02:47:00;25.00;;;15.90;;
22610;SDS011;11472;45.494;12.142;2023-04-24T02:48:00;25.00;;;15.90;;
22610;SDS011;11472;45.494;12.142;2023-04-24T02:49:00;19.90;;;13.60;;
22610;SDS011;11472;45.494;12.142;2023-04-24T02:50:01;19.90;;;13.60;;
22610;SDS011;11472;45.494;12.142;2023-04-24T02:51:00;19.90;;;13.60;;
22610;SDS011;11472;45.494;12.142;2023-04-24T02:52:00;19.90;;;13.60;;
22610;SDS011;11472;45.494;12.142;2023-04-24T02:53:00;19.90;;;13.60;;
22610;SDS011;11472;45.494;12.142;2023-04-24T02:54:00;19.90;;;13.60;;
22610;SDS011;11472;45.494;12.142;2023-04-24T02:55:00;19.90;;;13.60;;
22610;SDS011;11472;45.494;12.142;2023-04-24T02:56:00;19.90;;;13.60;;
22610;SDS011;11472;45.494;12.142;2023-04-24T02:57:01;19.90;;;13.60;;
22610;SDS011;11472;45.494;12.142;2023-04-24T02:58:00;19.90;;;13.60;;
22610;SDS011;11472;45.494;12.142;2023-04-24T02:59:00;19.90;;;13.60;;
22610;SDS011;11472;45.494;12.142;2023-04-24T03:00:00;19.90;;;13.60;;
22610;SDS011;11472;45.494;12.142;2023-04-24T03:01:00;19.90;;;13.60;;
22610;SDS011;11472;45.494;12.142;2023-04-24T03:02:00;19.90;;;13.60;;
22610;SDS011;11472;45.494;12.142;2023-04-24T03:03:01;19.90;;;13.60;;
22610;SDS011;11472;45.494;12.142;2023-04-24T03:04:08;22.90;;;14.00;;
22610;SDS011;11472;45.494;12.142;2023-04-24T03:05:01;22.90;;;14.00;;
22610;SDS011;11472;45.494;12.142;2023-04-24T03:06:00;22.90;;;14.00;;
22610;SDS011;11472;45.494;12.142;2023-04-24T03:07:01;22.90;;;14.00;;
22610;SDS011;11472;45.494;12.142;2023-04-24T03:08:00;22.90;;;14.00;;
22610;SDS011;11472;45.494;12.142;2023-04-24T03:09:00;22.90;;;14.00;;
22610;SDS011;11472;45.494;12.142;2023-04-24T03:10:00;22.90;;;14.00;;
22610;SDS011;11472;45.494;12.142;2023-04-24T03:11:00;22.90;;;14.00;;
22610;SDS011;11472;45.494;12.142;2023-04-24T03:12:00;22.90;;;14.00;;
22610;SDS011;11472;45.494;12.142;2023-04-24T03:13:00;22.90;;;14.00;;
22610;SDS011;11472;45.494;12.142;2023-04-24T03:14:00;22.90;;;14.00;;
22610;SDS011;11472;45.494;12.142;2023-04-24T03:15:00;22.90;;;14.00;;
22610;SDS011;11472;45.494;12.142;2023-04-24T03:16:00;22.90;;;14.00;;
22610;SDS011;11472;45.494;12.142;2023-04-24T03:17:00;22.90;;;14.00;;
22610;SDS011;11472;45.494;12.142;2023-04-24T03:18:00;22.90;;;14.00;;
22610;SDS011;11472;45.494;12.142;2023-04-24T03:19:00;19.90;;;13.40;;
22610;SDS011;11472;45.494;12.142;2023-04-24T03:20:01;19.90;;;13.40;;
22610;SDS011;11472;45.494;12.142;2023-04-24T03:21:01;19.90;;;13.40;;
22610;SDS011;11472;45.494;12.142;2023-04-24T03:22:02;19.90;;;13.40;;
22610;SDS011;11472;45.494;12.142;2023-04-24T03:23:00;19.90;;;13.40;;
22610;SDS011;11472;45.494;12.142;2023-04-24T03:24:00;19.90;;;13.40;;
22610;SDS011;11472;45.494;12.142;2023-04-24T03:25:01;19.90;;;13.40;;
22610;SDS011;11472;45.494;12.142;2023-04-24T03:26:00;19.90;;;13.40;;
22610;SDS011;11472;45.494;12.142;2023-04-24T03:27:00;19.90;;;13.40;;
22610;SDS011;11472;45.494;12.142;2023-04-24T03:28:00;19.90;;;13.40;;
22610;SDS011;11472;45.494;12.142;2023-04-24T03:29:01;19.90;;;13.40;;
22610;SDS011;11472;45.494;12.142;2023-04-24T03:30:01;19.90;;;13.40;;
22610;SDS011;11472;45.494;12.142;2023-04-24T03:31:00;19.90;;;13.40;;
22610;SDS011;11472;45.494;12.142;2023-04-24T03:32:00;19.90;;;13.40;;
22610;SDS011;11472;45.494;12.142;2023-04-24T03:33:00;19.90;;;13.40;;
22610;SDS011;11472;45.494;12.142;2023-04-24T03:34:00;20.40;;;12.80;;
22610;SDS011;11472;45.494;12.142;2023-04-24T03:35:00;20.40;;;12.80;;
22610;SDS011;11472;45.494;12.142;2023-04-24T03:36:00;20.40;;;12.80;;
22610;SDS011;11472;45.494;12.142;2023-04-24T03:37:00;20.40;;;12.80;;
22610;SDS011;11472;45.494;12.142;2023-04-24T03:38:00;20.40;;;12.80;;
22610;SDS011;11472;45.494;12.142;2023-04-24T03:39:00;20.40;;;12.80;;
22610;SDS011;11472;45.494;12.142;2023-04-24T03:40:01;20.40;;;12.80;;
22610;SDS011;11472;45.494;12.142;2023-04-24T03:41:00;20.40;;;12.80;;
22610;SDS011;11472;45.494;12.142;2023-04-24T03:42:01;20.40;;;12.80;;
22610;SDS011;11472;45.494;12.142;2023-04-24T03:43:00;20.40;;;12.80;;
22610;SDS011;11472;45.494;12.142;2023-04-24T03:44:00;20.40;;;12.80;;
22610;SDS011;11472;45.494;12.142;2023-04-24T03:45:00;20.40;;;12.80;;
22610;SDS011;11472;45.494;12.142;2023-04-24T03:46:01;20.40;;;12.80;;
22610;SDS011;11472;45.494;12.142;2023-04-24T03:47:01;20.40;;;12.80;;
22610;SDS011;11472;45.494;12.142;2023-04-24T03:48:00;20.40;;;12.80;;
22610;SDS011;11472;45.494;12.142;2023-04-24T03:49:00;19.90;;;12.60;;
22610;SDS011;11472;45.494;12.142;2023-04-24T03:50:01;19.90;;;12.60;;
22610;SDS011;11472;45.494;12.142;2023-04-24T03:51:00;19.90;;;12.60;;
22610;SDS011;11472;45.494;12.142;2023-04-24T03:52:00;19.90;;;12.60;;
22610;SDS011;11472;45.494;12.142;2023-04-24T03:53:00;19.90;;;12.60;;
22610;SDS011;11472;45.494;12.142;2023-04-24T03:54:00;19.90;;;12.60;;
22610;SDS011;11472;45.494;12.142;2023-04-24T03:55:00;19.90;;;12.60;;
22610;SDS011;11472;45.494;12.142;2023-04-24T03:56:00;19.90;;;12.60;;
22610;SDS011;11472;45.494;12.142;2023-04-24T03:57:01;19.90;;;12.60;;
22610;SDS011;11472;45.494;12.142;2023-04-24T03:58:00;19.90;;;12.60;;
22610;SDS011;11472;45.494;12.142;2023-04-24T03:59:00;19.90;;;12.60;;
22610;SDS011;11472;45.494;12.142;2023-04-24T04:00:01;19.90;;;12.60;;
22610;SDS011;11472;45.494;12.142;2023-04-24T04:01:00;19.90;;;12.60;;
22610;SDS011;11472;45.494;12.142;2023-04-24T04:02:00;19.90;;;12.60;;
22610;SDS011;11472;45.494;12.142;2023-04-24T04:03:01;19.90;;;12.60;;
22610;SDS011;11472;45.494;12.142;2023-04-24T04:04:00;20.50;;;13.30;;
22610;SDS011;11472;45.494;12.142;2023-04-24T04:05:01;20.50;;;13.30;;
22610;SDS011;11472;45.494;12.142;2023-04-24T04:06:00;20.50;;;13.30;;
22610;SDS011;11472;45.494;12.142;2023-04-24T04:07:02;20.50;;;13.30;;
22610;SDS011;11472;45.494;12.142;2023-04-24T04:08:00;20.50;;;13.30;;
22610;SDS011;11472;45.494;12.142;2023-04-24T04:09:00;20.50;;;13.30;;
22610;SDS011;11472;45.494;12.142;2023-04-24T04:10:00;20.50;;;13.30;;
22610;SDS011;11472;45.494;12.142;2023-04-24T04:11:00;20.50;;;13.30;;
22610;SDS011;11472;45.494;12.142;2023-04-24T04:12:00;20.50;;;13.30;;
22610;SDS011;11472;45.494;12.142;2023-04-24T04:13:00;20.50;;;13.30;;
22610;SDS011;11472;45.494;12.142;2023-04-24T04:14:01;20.50;;;13.30;;
22610;SDS011;11472;45.494;12.142;2023-04-24T04:15:00;20.50;;;13.30;;
22610;SDS011;11472;45.494;12.142;2023-04-24T04:16:01;20.50;;;13.30;;
22610;SDS011;11472;45.494;12.142;2023-04-24T04:17:00;20.50;;;13.30;;
22610;SDS011;11472;45.494;12.142;2023-04-24T04:18:00;20.50;;;13.30;;
22610;SDS011;11472;45.494;12.142;2023-04-24T04:19:00;25.30;;;14.10;;
22610;SDS011;11472;45.494;12.142;2023-04-24T04:20:01;25.30;;;14.10;;
22610;SDS011;11472;45.494;12.142;2023-04-24T04:21:01;25.30;;;14.10;;
22610;SDS011;11472;45.494;12.142;2023-04-24T04:22:00;25.30;;;14.10;;
22610;SDS011;11472;45.494;12.142;2023-04-24T04:23:00;25.30;;;14.10;;
22610;SDS011;11472;45.494;12.142;2023-04-24T04:24:00;25.30;;;14.10;;
22610;SDS011;11472;45.494;12.142;2023-04-24T04:25:00;25.30;;;14.10;;
22610;SDS011;11472;45.494;12.142;2023-04-24T04:26:01;25.30;;;14.10;;
22610;SDS011;11472;45.494;12.142;2023-04-24T04:27:01;25.30;;;14.10;;
22610;SDS011;11472;45.494;12.142;2023-04-24T04:28:02;25.30;;;14.10;;
22610;SDS011;11472;45.494;12.142;2023-04-24T04:29:00;25.30;;;14.10;;
22610;SDS011;11472;45.494;12.142;2023-04-24T04:30:04;25.30;;;14.10;;
22610;SDS011;11472;45.494;12.142;2023-04-24T04:31:00;25.30;;;14.10;;
22610;SDS011;11472;45.494;12.142;2023-04-24T04:32:01;25.30;;;14.10;;
22610;SDS011;11472;45.494;12.142;2023-04-24T04:33:01;25.30;;;14.10;;
22610;SDS011;11472;45.494;12.142;2023-04-24T04:34:01;19.30;;;13.70;;
22610;SDS011;11472;45.494;12.142;2023-04-24T04:35:04;19.30;;;13.70;;
22610;SDS011;11472;45.494;12.142;2023-04-24T04:36:01;19.30;;;13.70;;
22610;SDS011;11472;45.494;12.142;2023-04-24T04:37:01;19.30;;;13.70;;
22610;SDS011;11472;45.494;12.142;2023-04-24T04:38:00;19.30;;;13.70;;
22610;SDS011;11472;45.494;12.142;2023-04-24T04:39:00;19.30;;;13.70;;
22610;SDS011;11472;45.494;12.142;2023-04-24T04:40:01;19.30;;;13.70;;
22610;SDS011;11472;45.494;12.142;2023-04-24T04:41:00;19.30;;;13.70;;
22610;SDS011;11472;45.494;12.142;2023-04-24T04:42:00;19.30;;;13.70;;
22610;SDS011;11472;45.494;12.142;2023-04-24T04:43:00;19.30;;;13.70;;
22610;SDS011;11472;45.494;12.142;2023-04-24T04:44:01;19.30;;;13.70;;
22610;SDS011;11472;45.494;12.142;2023-04-24T04:45:00;19.30;;;13.70;;
22610;SDS011;11472;45.494;12.142;2023-04-24T04:46:00;19.30;;;13.70;;
22610;SDS011;11472;45.494;12.142;2023-04-24T04:47:03;19.30;;;13.70;;
22610;SDS011;11472;45.494;12.142;2023-04-24T04:48:01;19.30;;;13.70;;
22610;SDS011;11472;45.494;12.142;2023-04-24T04:49:01;28.60;;;16.90;;
22610;SDS011;11472;45.494;12.142;2023-04-24T04:50:00;28.60;;;16.90;;
22610;SDS011;11472;45.494;12.142;2023-04-24T04:51:00;28.60;;;16.90;;
22610;SDS011;11472;45.494;12.142;2023-04-24T04:52:00;28.60;;;16.90;;
22610;SDS011;11472;45.494;12.142;2023-04-24T04:53:00;28.60;;;16.90;;
22610;SDS011;11472;45.494;12.142;2023-04-24T04:54:00;28.60;;;16.90;;
22610;SDS011;11472;45.494;12.142;2023-04-24T04:55:00;28.60;;;16.90;;
22610;SDS011;11472;45.494;12.142;2023-04-24T04:56:00;28.60;;;16.90;;
22610;SDS011;11472;45.494;12.142;2023-04-24T04:57:01;28.60;;;16.90;;
22610;SDS011;11472;45.494;12.142;2023-04-24T04:58:00;28.60;;;16.90;;
22610;SDS011;11472;45.494;12.142;2023-04-24T04:59:00;28.60;;;16.90;;
22610;SDS011;11472;45.494;12.142;2023-04-24T05:00:01;28.60;;;16.90;;
22610;SDS011;11472;45.494;12.142;2023-04-24T05:01:00;28.60;;;16.90;;
22610;SDS011;11472;45.494;12.142;2023-04-24T05:02:00;28.60;;;16.90;;
22610;SDS011;11472;45.494;12.142;2023-04-24T05:03:10;28.60;;;16.90;;
22610;SDS011;11472;45.494;12.142;2023-04-24T05:04:01;28.80;;;16.70;;
22610;SDS011;11472;45.494;12.142;2023-04-24T05:05:02;28.80;;;16.70;;
22610;SDS011;11472;45.494;12.142;2023-04-24T05:06:00;28.80;;;16.70;;
22610;SDS011;11472;45.494;12.142;2023-04-24T05:07:00;28.80;;;16.70;;
22610;SDS011;11472;45.494;12.142;2023-04-24T05:08:00;28.80;;;16.70;;
22610;SDS011;11472;45.494;12.142;2023-04-24T05:09:00;28.80;;;16.70;;
22610;SDS011;11472;45.494;12.142;2023-04-24T05:10:00;28.80;;;16.70;;
22610;SDS011;11472;45.494;12.142;2023-04-24T05:11:00;28.80;;;16.70;;
22610;SDS011;11472;45.494;12.142;2023-04-24T05:12:02;28.80;;;16.70;;
22610;SDS011;11472;45.494;12.142;2023-04-24T05:13:01;28.80;;;16.70;;
22610;SDS011;11472;45.494;12.142;2023-04-24T05:14:01;28.80;;;16.70;;
22610;SDS011;11472;45.494;12.142;2023-04-24T05:15:00;28.80;;;16.70;;
22610;SDS011;11472;45.494;12.142;2023-04-24T05:16:01;28.80;;;16.70;;
22610;SDS011;11472;45.494;12.142;2023-04-24T05:17:01;28.80;;;16.70;;
22610;SDS011;11472;45.494;12.142;2023-04-24T05:18:00;28.80;;;16.70;;
22610;SDS011;11472;45.494;12.142;2023-04-24T05:19:00;30.70;;;17.30;;
22610;SDS011;11472;45.494;12.142;2023-04-24T05:20:00;30.70;;;17.30;;
22610;SDS011;11472;45.494;12.142;2023-04-24T05:21:01;30.70;;;17.30;;
22610;SDS011;11472;45.494;12.142;2023-04-24T05:22:03;30.70;;;17.30;;
22610;SDS011;11472;45.494;12.142;2023-04-24T05:23:00;30.70;;;17.30;;
22610;SDS011;11472;45.494;12.142;2023-04-24T05:24:00;30.70;;;17.30;;
22610;SDS011;11472;45.494;12.142;2023-04-24T05:25:00;30.70;;;17.30;;
22610;SDS011;11472;45.494;12.142;2023-04-24T05:26:00;30.70;;;17.30;;
22610;SDS011;11472;45.494;12.142;2023-04-24T05:27:00;30.70;;;17.30;;
22610;SDS011;11472;45.494;12.142;2023-04-24T05:28:01;30.70;;;17.30;;
22610;SDS011;11472;45.494;12.142;2023-04-24T05:29:01;30.70;;;17.30;;
22610;SDS011;11472;45.494;12.142;2023-04-24T05:30:01;30.70;;;17.30;;
22610;SDS011;11472;45.494;12.142;2023-04-24T05:31:01;30.70;;;17.30;;
22610;SDS011;11472;45.494;12.142;2023-04-24T05:32:00;30.70;;;17.30;;
22610;SDS011;11472;45.494;12.142;2023-04-24T05:33:02;30.70;;;17.30;;
22610;SDS011;11472;45.494;12.142;2023-04-24T05:34:00;25.70;;;17.00;;
22610;SDS011;11472;45.494;12.142;2023-04-24T05:35:00;25.70;;;17.00;;
22610;SDS011;11472;45.494;12.142;2023-04-24T05:36:00;25.70;;;17.00;;
22610;SDS011;11472;45.494;12.142;2023-04-24T05:37:00;25.70;;;17.00;;
22610;SDS011;11472;45.494;12.142;2023-04-24T05:38:01;25.70;;;17.00;;
22610;SDS011;11472;45.494;12.142;2023-04-24T05:39:00;25.70;;;17.00;;
22610;SDS011;11472;45.494;12.142;2023-04-24T05:40:00;25.70;;;17.00;;
22610;SDS011;11472;45.494;12.142;2023-04-24T05:41:00;25.70;;;17.00;;
22610;SDS011;11472;45.494;12.142;2023-04-24T05:42:01;25.70;;;17.00;;
22610;SDS011;11472;45.494;12.142;2023-04-24T05:43:00;25.70;;;17.00;;
22610;SDS011;11472;45.494;12.142;2023-04-24T05:44:00;25.70;;;17.00;;
22610;SDS011;11472;45.494;12.142;2023-04-24T05:45:00;25.70;;;17.00;;